createdAt,value
2022-11-28T00:00:35.574Z,8.18
2022-11-28T00:01:57.587Z,8.47
2022-11-28T00:02:59.583Z,8.20
2022-11-28T00:04:01.613Z,7.74
2022-11-28T00:05:03.864Z,7.25
2022-11-28T00:06:07.526Z,6.80
2022-11-28T00:07:11.950Z,6.39
2022-11-28T00:08:14.557Z,6.05
2022-11-28T00:09:19.055Z,5.76
2022-11-28T00:10:20.947Z,5.50
2022-11-28T00:11:22.756Z,5.37
2022-11-28T00:12:24.633Z,5.66
2022-11-28T00:13:26.444Z,6.21
2022-11-28T00:14:28.188Z,6.81
2022-11-28T00:15:30.544Z,7.35
2022-11-28T00:16:32.868Z,7.84
2022-11-28T00:17:34.788Z,8.25
2022-11-28T00:18:36.545Z,8.47
2022-11-28T00:19:38.278Z,8.25
2022-11-28T00:20:40.015Z,7.80
2022-11-28T00:21:42.007Z,7.32
2022-11-28T00:22:43.729Z,6.86
2022-11-28T00:23:48.523Z,6.45
2022-11-28T00:24:50.218Z,6.09
2022-11-28T00:26:04.465Z,5.78
2022-11-28T00:27:06.187Z,5.45
2022-11-28T00:28:08.024Z,5.30
2022-11-28T00:29:11.740Z,5.54
2022-11-28T00:30:14.182Z,6.11
2022-11-28T00:31:19.462Z,6.71
2022-11-28T00:32:21.277Z,7.30
2022-11-28T00:33:23.080Z,7.78
2022-11-28T00:34:24.832Z,8.18
2022-11-28T00:35:26.578Z,8.39
2022-11-28T00:36:30.489Z,8.17
2022-11-28T00:37:32.414Z,7.70
2022-11-28T00:38:34.309Z,7.21
2022-11-28T00:39:36.036Z,6.76
2022-11-28T00:40:37.957Z,6.35
2022-11-28T00:41:39.794Z,5.99
2022-11-28T00:42:41.827Z,5.67
2022-11-28T00:43:45.902Z,5.39
2022-11-28T00:44:49.646Z,5.14
2022-11-28T00:45:51.469Z,5.15
2022-11-28T00:46:53.244Z,5.56
2022-11-28T00:47:55.010Z,6.16
2022-11-28T00:48:58.782Z,6.75
2022-11-28T00:50:00.520Z,7.30
2022-11-28T00:51:13.127Z,7.74
2022-11-28T00:52:14.974Z,8.16
2022-11-28T00:53:17.236Z,8.22
2022-11-28T00:54:18.970Z,7.88
2022-11-28T00:55:20.703Z,7.41
2022-11-28T00:56:27.726Z,6.93
2022-11-28T00:57:29.509Z,6.47
2022-11-28T00:58:32.783Z,6.11
2022-11-28T00:59:34.934Z,5.78
2022-11-28T01:00:37.020Z,5.50
2022-11-28T01:01:46.404Z,5.25
2022-11-28T01:02:48.509Z,5.01
2022-11-28T01:03:52.698Z,4.99
2022-11-28T01:04:54.494Z,5.40
2022-11-28T01:05:56.283Z,6.01
2022-11-28T01:06:58.183Z,6.62
2022-11-28T01:08:00.003Z,7.16
2022-11-28T01:09:07.075Z,7.64
2022-11-28T01:10:11.603Z,7.99
2022-11-28T01:11:14.268Z,7.90
2022-11-28T01:12:16.018Z,7.49
2022-11-28T01:13:17.753Z,7.01
2022-11-28T01:14:24.550Z,6.57
2022-11-28T01:15:26.551Z,6.15
2022-11-28T01:16:30.207Z,5.81
2022-11-28T01:17:32.050Z,5.50
2022-11-28T01:18:34.367Z,5.24
2022-11-28T01:19:36.095Z,5.02
2022-11-28T01:20:37.950Z,4.80
2022-11-28T01:21:40.685Z,4.61
2022-11-28T01:22:42.448Z,4.69
2022-11-28T01:23:44.457Z,5.13
2022-11-28T01:24:46.346Z,5.74
2022-11-28T01:25:48.277Z,6.34
2022-11-28T01:26:50.077Z,6.88
2022-11-28T01:27:51.985Z,7.33
2022-11-28T01:28:54.416Z,7.66
2022-11-28T01:29:56.180Z,7.61
2022-11-28T01:31:07.858Z,7.24
2022-11-28T01:32:09.645Z,6.70
2022-11-28T01:33:11.402Z,6.25
2022-11-28T01:34:13.147Z,5.83
2022-11-28T01:35:14.929Z,5.46
2022-11-28T01:36:18.352Z,5.15
2022-11-28T01:37:20.091Z,4.88
2022-11-28T01:38:22.589Z,4.64
2022-11-28T01:39:24.322Z,4.43
2022-11-28T01:40:26.081Z,4.49
2022-11-28T01:41:29.026Z,4.93
2022-11-28T01:42:30.888Z,5.55
2022-11-28T01:43:33.853Z,6.15
2022-11-28T01:44:43.095Z,6.70
2022-11-28T01:45:45.400Z,7.19
2022-11-28T01:46:47.260Z,7.54
2022-11-28T01:47:53.712Z,7.70
2022-11-28T01:49:01.368Z,7.43
2022-11-28T01:50:06.322Z,6.92
2022-11-28T01:51:10.236Z,6.40
2022-11-28T01:52:16.976Z,5.95
2022-11-28T01:53:18.977Z,5.53
2022-11-28T01:54:25.354Z,5.20
2022-11-28T01:55:35.441Z,4.89
2022-11-28T01:57:06.321Z,4.63
2022-11-28T01:58:09.928Z,4.91
2022-11-28T01:59:15.233Z,5.50
2022-11-28T02:00:21.043Z,6.14
2022-11-28T02:01:27.326Z,6.73
2022-11-28T02:02:42.140Z,7.24
2022-11-28T02:03:48.016Z,7.70
2022-11-28T02:04:50.691Z,7.84
2022-11-28T02:05:53.740Z,7.56
2022-11-28T02:06:55.720Z,7.09
2022-11-28T02:07:57.514Z,6.62
2022-11-28T02:08:59.298Z,6.19
2022-11-28T02:10:06.355Z,5.80
2022-11-28T02:11:14.211Z,5.42
2022-11-28T02:12:34.836Z,5.10
2022-11-28T02:14:14.462Z,4.78
2022-11-28T02:15:51.272Z,4.84
2022-11-28T02:17:22.368Z,5.70
2022-11-28T02:18:58.558Z,6.60
2022-11-28T02:20:34.070Z,7.38
2022-11-28T02:22:09.477Z,7.87
2022-11-28T02:23:36.163Z,7.50
2022-11-28T02:24:56.131Z,6.85
2022-11-28T02:26:16.218Z,6.29
2022-11-28T02:27:32.038Z,5.82
2022-11-28T02:29:07.357Z,5.45
2022-11-28T02:30:41.062Z,5.07
2022-11-28T02:32:13.817Z,4.77
2022-11-28T02:33:39.947Z,5.08
2022-11-28T02:35:09.744Z,5.93
2022-11-28T02:36:32.136Z,6.81
2022-11-28T02:37:44.302Z,7.46
2022-11-28T02:39:14.556Z,7.89
2022-11-28T02:40:27.661Z,7.79
2022-11-28T02:41:47.863Z,7.30
2022-11-28T02:43:17.002Z,6.71
2022-11-28T02:44:25.911Z,6.15
2022-11-28T02:45:56.288Z,5.79
2022-11-28T02:47:09.841Z,5.39
2022-11-28T02:48:41.083Z,5.12
2022-11-28T02:50:12.042Z,4.98
2022-11-28T02:51:31.584Z,5.61
2022-11-28T02:52:50.001Z,6.41
2022-11-28T02:53:55.240Z,7.14
2022-11-28T02:54:58.621Z,7.66
2022-11-28T02:56:01.159Z,8.07
2022-11-28T02:57:03.220Z,8.15
2022-11-28T02:58:04.968Z,7.84
2022-11-28T02:59:32.622Z,7.39
2022-11-28T03:00:37.341Z,6.76
2022-11-28T03:01:39.476Z,6.35
2022-11-28T03:02:45.295Z,6.01
2022-11-28T03:04:16.443Z,5.72
2022-11-28T03:05:33.368Z,5.35
2022-11-28T03:06:45.288Z,5.11
2022-11-28T03:08:16.275Z,5.14
2022-11-28T03:09:45.507Z,5.88
2022-11-28T03:11:20.068Z,6.79
2022-11-28T03:13:03.290Z,7.60
2022-11-28T03:14:42.638Z,8.12
2022-11-28T03:15:52.091Z,7.64
2022-11-28T03:17:11.872Z,7.10
2022-11-28T03:18:24.765Z,6.50
2022-11-28T03:19:47.023Z,6.03
2022-11-28T03:21:09.851Z,5.57
2022-11-28T03:22:34.565Z,5.20
2022-11-28T03:23:57.765Z,4.89
2022-11-28T03:25:23.696Z,5.02
2022-11-28T03:27:01.934Z,5.82
2022-11-28T03:28:43.380Z,6.76
2022-11-28T03:29:58.006Z,7.56
2022-11-28T03:31:06.971Z,7.97
2022-11-28T03:32:23.123Z,7.89
2022-11-28T03:33:31.216Z,7.38
2022-11-28T03:34:38.455Z,6.84
2022-11-28T03:35:50.255Z,6.36
2022-11-28T03:37:03.314Z,5.92
2022-11-28T03:38:13.421Z,5.54
2022-11-28T03:39:21.869Z,5.23
2022-11-28T03:40:33.838Z,4.96
2022-11-28T03:41:46.764Z,4.75
2022-11-28T03:42:57.957Z,4.98
2022-11-28T03:44:03.331Z,5.61
2022-11-28T03:45:13.848Z,6.27
2022-11-28T03:46:22.051Z,6.90
2022-11-28T03:47:32.585Z,7.42
2022-11-28T03:48:42.059Z,7.86
2022-11-28T03:49:52.279Z,7.88
2022-11-28T03:51:04.902Z,7.45
2022-11-28T03:52:12.121Z,6.90
2022-11-28T03:53:22.101Z,6.43
2022-11-28T03:54:29.548Z,6.00
2022-11-28T03:55:42.104Z,5.64
2022-11-28T03:56:46.660Z,5.31
2022-11-28T03:57:53.884Z,5.06
2022-11-28T03:59:04.063Z,4.85
2022-11-28T04:00:09.371Z,5.04
2022-11-28T04:01:27.715Z,5.65
2022-11-28T04:02:37.318Z,6.43
2022-11-28T04:04:16.487Z,7.08
2022-11-28T04:05:54.737Z,7.80
2022-11-28T04:07:12.734Z,8.02
2022-11-28T04:08:17.398Z,7.54
2022-11-28T04:09:44.339Z,7.04
2022-11-28T04:11:13.288Z,6.37
2022-11-28T04:12:36.838Z,5.83
2022-11-28T04:14:03.432Z,5.42
2022-11-28T04:15:34.680Z,5.05
2022-11-28T04:17:04.588Z,4.98
2022-11-28T04:18:42.001Z,5.68
2022-11-28T04:19:54.254Z,6.64
2022-11-28T04:21:32.315Z,7.26
2022-11-28T04:22:44.259Z,7.93
2022-11-28T04:23:49.557Z,8.23
2022-11-28T04:25:15.956Z,8.05
2022-11-28T04:26:27.430Z,7.42
2022-11-28T04:27:37.623Z,6.88
2022-11-28T04:28:41.731Z,6.41
2022-11-28T04:29:50.232Z,6.06
2022-11-28T04:30:56.483Z,5.74
2022-11-28T04:32:02.107Z,5.46
2022-11-28T04:33:10.015Z,5.25
2022-11-28T04:34:17.835Z,5.41
2022-11-28T04:35:30.191Z,5.99
2022-11-28T04:36:37.635Z,6.72
2022-11-28T04:37:44.168Z,7.33
2022-11-28T04:38:56.226Z,7.84
2022-11-28T04:40:01.094Z,8.30
2022-11-28T04:41:14.766Z,8.35
2022-11-28T04:42:36.033Z,7.91
2022-11-28T04:43:48.575Z,7.27
2022-11-28T04:44:58.330Z,6.75
2022-11-28T04:46:09.116Z,6.33
2022-11-28T04:47:12.014Z,5.96
2022-11-28T04:48:13.919Z,5.68
2022-11-28T04:49:16.057Z,5.44
2022-11-28T04:50:18.275Z,5.32
2022-11-28T04:51:39.552Z,5.61
2022-11-28T04:52:53.522Z,6.35
2022-11-28T04:54:05.860Z,7.05
2022-11-28T04:55:29.874Z,7.65
2022-11-28T04:56:50.557Z,8.22
2022-11-28T04:58:02.687Z,8.45
2022-11-28T04:59:06.519Z,8.09
2022-11-28T05:00:12.536Z,7.62
2022-11-28T05:01:24.319Z,7.12
2022-11-28T05:02:28.666Z,6.62
2022-11-28T05:03:31.971Z,6.25
2022-11-28T05:04:37.153Z,5.93
2022-11-28T05:05:51.523Z,5.64
2022-11-28T05:07:02.433Z,5.38
2022-11-28T05:08:04.491Z,5.44
2022-11-28T05:09:06.509Z,5.94
2022-11-28T05:10:11.032Z,6.56
2022-11-28T05:11:12.798Z,7.19
2022-11-28T05:12:14.557Z,7.71
2022-11-28T05:13:16.745Z,8.16
2022-11-28T05:14:19.084Z,8.51
2022-11-28T05:15:20.872Z,8.48
2022-11-28T05:16:23.471Z,8.11
2022-11-28T05:17:25.484Z,7.64
2022-11-28T05:18:27.211Z,7.18
2022-11-28T05:19:29.004Z,6.77
2022-11-28T05:20:31.521Z,6.41
2022-11-28T05:21:33.593Z,6.10
2022-11-28T05:22:35.470Z,5.84
2022-11-28T05:23:38.644Z,5.59
2022-11-28T05:24:40.419Z,5.51
2022-11-28T05:25:42.185Z,5.86
2022-11-28T05:26:43.999Z,6.44
2022-11-28T05:27:45.900Z,7.06
2022-11-28T05:28:51.012Z,7.61
2022-11-28T05:29:53.884Z,8.10
2022-11-28T05:31:00.335Z,8.51
2022-11-28T05:32:02.647Z,8.65
2022-11-28T05:33:04.474Z,8.35
2022-11-28T05:34:06.348Z,7.89
2022-11-28T05:35:09.001Z,7.42
2022-11-28T05:36:13.743Z,6.99
2022-11-28T05:37:15.952Z,6.60
2022-11-28T05:38:17.873Z,6.29
2022-11-28T05:39:19.583Z,6.02
2022-11-28T05:40:21.355Z,5.77
2022-11-28T05:41:29.333Z,5.56
2022-11-28T05:42:35.930Z,5.71
2022-11-28T05:43:37.714Z,6.28
2022-11-28T05:44:39.611Z,6.90
2022-11-28T05:45:42.995Z,7.48
2022-11-28T05:46:44.988Z,7.99
2022-11-28T05:47:46.808Z,8.43
2022-11-28T05:48:48.696Z,8.74
2022-11-28T05:49:50.457Z,8.65
2022-11-28T05:50:52.422Z,8.26
2022-11-28T05:51:54.319Z,7.75
2022-11-28T05:52:56.013Z,7.28
2022-11-28T05:53:57.964Z,6.87
2022-11-28T05:55:00.342Z,6.50
2022-11-28T05:56:14.462Z,6.18
2022-11-28T05:57:16.204Z,5.87
2022-11-28T05:58:17.960Z,5.63
2022-11-28T05:59:19.800Z,5.58
2022-11-28T06:00:21.841Z,5.96
2022-11-28T06:01:26.427Z,6.54
2022-11-28T06:02:28.277Z,7.16
2022-11-28T06:03:30.749Z,7.72
2022-11-28T06:04:32.615Z,8.17
2022-11-28T06:05:42.649Z,8.55
2022-11-28T06:06:45.220Z,8.65
2022-11-28T06:07:47.005Z,8.31
2022-11-28T06:08:51.500Z,7.84
2022-11-28T06:09:53.355Z,7.34
2022-11-28T06:10:59.471Z,6.92
2022-11-28T06:12:01.318Z,6.52
2022-11-28T06:13:03.094Z,6.20
2022-11-28T06:14:04.852Z,5.93
2022-11-28T06:15:07.222Z,5.69
2022-11-28T06:16:11.519Z,5.65
2022-11-28T06:17:13.360Z,6.03
2022-11-28T06:18:15.151Z,6.60
2022-11-28T06:19:16.953Z,7.19
2022-11-28T06:20:19.219Z,7.72
2022-11-28T06:21:21.696Z,8.19
2022-11-28T06:22:23.529Z,8.58
2022-11-28T06:23:25.274Z,8.75
2022-11-28T06:24:27.145Z,8.52
2022-11-28T06:25:29.346Z,8.04
2022-11-28T06:26:31.349Z,7.56
2022-11-28T06:27:35.948Z,7.11
2022-11-28T06:28:38.160Z,6.70
2022-11-28T06:29:39.987Z,6.35
2022-11-28T06:30:43.740Z,6.05
2022-11-28T06:31:45.555Z,5.77
2022-11-28T06:32:47.346Z,5.57
2022-11-28T06:33:50.848Z,5.72
2022-11-28T06:34:52.618Z,6.24
2022-11-28T06:36:04.189Z,6.84
2022-11-28T06:37:05.984Z,7.50
2022-11-28T06:38:12.887Z,7.99
2022-11-28T06:39:17.228Z,8.46
2022-11-28T06:40:19.025Z,8.78
2022-11-28T06:41:21.528Z,8.74
2022-11-28T06:42:23.367Z,8.35
2022-11-28T06:43:25.349Z,7.86
2022-11-28T06:44:27.071Z,7.38
2022-11-28T06:45:28.844Z,6.96
2022-11-28T06:46:30.675Z,6.60
2022-11-28T06:47:33.238Z,6.29
2022-11-28T06:48:34.971Z,6.00
2022-11-28T06:49:36.963Z,5.77
2022-11-28T06:50:38.758Z,5.85
2022-11-28T06:51:41.931Z,6.32
2022-11-28T06:52:43.768Z,6.93
2022-11-28T06:53:45.632Z,7.52
2022-11-28T06:54:47.468Z,8.03
2022-11-28T06:55:49.209Z,8.48
2022-11-28T06:56:51.093Z,8.84
2022-11-28T06:57:52.838Z,8.94
2022-11-28T06:58:56.968Z,8.64
2022-11-28T06:59:58.976Z,8.13
2022-11-28T07:01:12.235Z,7.64
2022-11-28T07:02:14.109Z,7.13
2022-11-28T07:03:15.896Z,6.75
2022-11-28T07:04:17.692Z,6.42
2022-11-28T07:05:21.448Z,6.16
2022-11-28T07:06:25.776Z,5.93
2022-11-28T07:07:27.597Z,6.00
2022-11-28T07:08:30.819Z,6.47
2022-11-28T07:09:32.742Z,7.07
2022-11-28T07:10:34.531Z,7.66
2022-11-28T07:11:36.293Z,8.18
2022-11-28T07:12:38.442Z,8.62
2022-11-28T07:13:42.147Z,8.96
2022-11-28T07:14:43.918Z,8.96
2022-11-28T07:15:51.285Z,8.60
2022-11-28T07:16:53.570Z,8.06
2022-11-28T07:17:56.117Z,7.58
2022-11-28T07:18:59.166Z,7.15
2022-11-28T07:20:01.204Z,6.78
2022-11-28T07:21:03.516Z,6.47
2022-11-28T07:22:05.329Z,6.20
2022-11-28T07:23:07.320Z,5.99
2022-11-28T07:24:09.140Z,6.09
2022-11-28T07:25:11.389Z,6.56
2022-11-28T07:26:15.393Z,7.17
2022-11-28T07:27:17.165Z,7.78
2022-11-28T07:28:23.103Z,8.30
2022-11-28T07:29:25.249Z,8.76
2022-11-28T07:30:27.136Z,9.10
2022-11-28T07:31:32.191Z,9.12
2022-11-28T07:32:34.394Z,8.74
2022-11-28T07:33:37.628Z,8.25
2022-11-28T07:34:41.179Z,7.77
2022-11-28T07:35:42.913Z,7.33
2022-11-28T07:36:44.842Z,6.97
2022-11-28T07:37:46.892Z,6.67
2022-11-28T07:38:50.650Z,6.39
2022-11-28T07:39:52.459Z,6.16
2022-11-28T07:40:54.231Z,6.23
2022-11-28T07:41:56.122Z,6.68
2022-11-28T07:42:58.156Z,7.27
2022-11-28T07:44:02.210Z,7.85
2022-11-28T07:45:05.273Z,8.39
2022-11-28T07:46:10.460Z,8.82
2022-11-28T07:47:12.234Z,9.18
2022-11-28T07:48:14.106Z,9.19
2022-11-28T07:49:16.052Z,8.84
2022-11-28T07:50:17.827Z,8.37
2022-11-28T07:51:23.730Z,7.89
2022-11-28T07:52:25.554Z,7.44
2022-11-28T07:53:27.267Z,7.09
2022-11-28T07:54:29.057Z,6.77
2022-11-28T07:55:30.816Z,6.51
2022-11-28T07:57:10.236Z,6.32
2022-11-28T07:57:57.803Z,6.66
2022-11-28T07:59:03.293Z,7.24
2022-11-28T08:00:06.154Z,7.88
2022-11-28T08:01:17.780Z,8.48
2022-11-28T08:02:19.664Z,8.96
2022-11-28T08:03:21.679Z,9.32
2022-11-28T08:04:23.854Z,9.41
2022-11-28T08:05:25.714Z,9.11
2022-11-28T08:06:30.368Z,8.66
2022-11-28T08:07:32.248Z,8.16
2022-11-28T08:08:34.613Z,7.74
2022-11-28T08:09:36.387Z,7.37
2022-11-28T08:10:38.128Z,7.06
2022-11-28T08:11:41.173Z,6.78
2022-11-28T08:12:43.340Z,6.53
2022-11-28T08:13:46.076Z,6.47
2022-11-28T08:14:47.849Z,6.84
2022-11-28T08:15:49.656Z,7.41
2022-11-28T08:16:52.410Z,8.00
2022-11-28T08:17:54.252Z,8.56
2022-11-28T08:18:57.159Z,9.01
2022-11-28T08:19:58.895Z,9.40
2022-11-28T08:21:12.471Z,9.57
2022-11-28T08:22:14.221Z,9.29
2022-11-28T08:23:16.201Z,8.82
2022-11-28T08:24:17.932Z,8.33
2022-11-28T08:25:19.722Z,7.87
2022-11-28T08:26:29.083Z,7.48
2022-11-28T08:27:32.811Z,7.11
2022-11-28T08:28:35.901Z,6.81
2022-11-28T08:29:37.618Z,6.58
2022-11-28T08:30:39.465Z,6.66
2022-11-28T08:31:41.296Z,7.12
2022-11-28T08:32:43.112Z,7.70
2022-11-28T08:33:47.317Z,8.28
2022-11-28T08:34:49.121Z,8.82
2022-11-28T08:35:52.154Z,9.24
2022-11-28T08:36:53.952Z,9.59
2022-11-28T08:38:00.479Z,9.67
2022-11-28T08:40:27.740Z,8.68
2022-11-28T08:41:29.476Z,8.21
2022-11-28T08:42:31.249Z,7.80
2022-11-28T08:43:37.363Z,7.45
2022-11-28T08:44:39.095Z,7.12
2022-11-28T08:45:40.884Z,6.86
2022-11-28T08:46:42.783Z,6.71
2022-11-28T08:47:44.870Z,6.94
2022-11-28T08:48:52.534Z,7.48
2022-11-28T08:49:54.335Z,8.13
2022-11-28T08:50:56.427Z,8.70
2022-11-28T08:51:58.264Z,9.18
2022-11-28T08:53:01.913Z,9.59
2022-11-28T08:54:09.311Z,9.88
2022-11-28T08:55:11.052Z,9.74
2022-11-28T08:56:13.264Z,9.34
2022-11-28T08:57:15.035Z,8.86
2022-11-28T08:58:16.832Z,8.42
2022-11-28T08:59:18.784Z,8.01
2022-11-28T09:00:20.942Z,7.67
2022-11-28T09:01:25.973Z,7.37
2022-11-28T09:02:27.837Z,7.10
2022-11-28T09:03:29.975Z,6.94
2022-11-28T09:04:31.932Z,7.14
2022-11-28T09:05:34.023Z,7.66
2022-11-28T09:06:39.366Z,8.27
2022-11-28T09:07:41.406Z,8.87
2022-11-28T09:08:44.496Z,9.37
2022-11-28T09:09:46.553Z,9.78
2022-11-28T09:10:48.564Z,10.05
2022-11-28T09:11:50.578Z,9.95
2022-11-28T09:12:52.697Z,9.56
2022-11-28T09:13:55.685Z,9.07
2022-11-28T09:14:57.439Z,8.62
2022-11-28T09:15:59.198Z,8.20
2022-11-28T09:17:01.019Z,7.84
2022-11-28T09:18:02.794Z,7.52
2022-11-28T09:19:05.130Z,7.26
2022-11-28T09:20:07.769Z,7.03
2022-11-28T09:21:12.968Z,7.00
2022-11-28T09:22:14.760Z,7.40
2022-11-28T09:23:16.552Z,7.97
2022-11-28T09:24:18.313Z,8.58
2022-11-28T09:25:20.114Z,9.12
2022-11-28T09:26:24.757Z,9.56
2022-11-28T09:27:26.519Z,9.95
2022-11-28T09:28:28.911Z,10.11
2022-11-28T09:29:30.675Z,9.87
2022-11-28T09:30:33.128Z,9.42
2022-11-28T09:31:35.163Z,8.93
2022-11-28T09:32:36.873Z,8.49
2022-11-28T09:33:38.854Z,8.10
2022-11-28T09:34:40.640Z,7.77
2022-11-28T09:35:42.605Z,7.47
2022-11-28T09:36:44.339Z,7.20
2022-11-28T09:37:46.189Z,7.05
2022-11-28T09:38:48.963Z,7.28
2022-11-28T09:40:12.071Z,7.81
2022-11-28T09:41:30.642Z,8.60
2022-11-28T09:42:39.490Z,9.25
2022-11-28T09:43:49.678Z,9.71
2022-11-28T09:45:06.345Z,10.08
2022-11-28T09:46:17.828Z,9.99
2022-11-28T09:47:30.955Z,9.52
2022-11-28T09:48:45.957Z,8.98
2022-11-28T09:49:54.789Z,8.46
2022-11-28T09:51:15.567Z,8.03
2022-11-28T09:52:45.915Z,7.62
2022-11-28T09:54:06.717Z,7.24
2022-11-28T09:55:25.630Z,7.21
2022-11-28T09:56:27.910Z,7.80
2022-11-28T09:57:40.308Z,8.42
2022-11-28T09:58:55.458Z,9.07
2022-11-28T09:59:57.320Z,9.62
2022-11-28T10:01:11.146Z,9.99
2022-11-28T10:02:13.080Z,10.16
2022-11-28T10:03:17.569Z,9.87
2022-11-28T10:04:27.086Z,9.40
2022-11-28T10:05:41.491Z,8.88
2022-11-28T10:07:15.730Z,8.35
2022-11-28T10:08:47.370Z,7.80
2022-11-28T10:10:24.372Z,7.39
2022-11-28T10:12:00.987Z,7.09
2022-11-28T10:13:32.660Z,7.58
2022-11-28T10:14:57.895Z,8.57
2022-11-28T10:16:21.345Z,9.23
2022-11-28T10:17:59.836Z,9.81
2022-11-28T10:19:20.633Z,10.27
2022-11-28T10:20:41.284Z,9.95
2022-11-28T10:21:59.324Z,9.43
2022-11-28T10:23:09.225Z,8.84
2022-11-28T10:24:17.883Z,8.39
2022-11-28T10:25:47.039Z,7.99
2022-11-28T10:27:01.384Z,7.58
2022-11-28T10:28:25.699Z,7.32
2022-11-28T10:29:47.318Z,7.55
2022-11-28T10:31:00.856Z,8.30
2022-11-28T10:32:05.037Z,9.01
2022-11-28T10:33:24.403Z,9.55
2022-11-28T10:34:30.823Z,10.09
2022-11-28T10:35:52.335Z,10.42
2022-11-28T10:37:06.263Z,10.27
2022-11-28T10:38:13.881Z,9.78
2022-11-28T10:39:15.655Z,9.27
2022-11-28T10:40:32.451Z,8.87
2022-11-28T10:41:41.573Z,8.43
2022-11-28T10:43:01.871Z,8.10
2022-11-28T10:44:21.441Z,7.79
2022-11-28T10:46:05.109Z,7.52
2022-11-28T10:47:20.050Z,7.79
2022-11-28T10:48:41.228Z,8.47
2022-11-28T10:50:16.561Z,9.28
2022-11-28T10:51:23.259Z,10.05
2022-11-28T10:52:34.241Z,10.46
2022-11-28T10:54:04.575Z,10.49
2022-11-28T10:55:35.102Z,9.96
2022-11-28T10:56:49.283Z,9.33
2022-11-28T10:58:07.336Z,8.87
2022-11-28T10:59:32.060Z,8.48
2022-11-28T11:00:36.723Z,8.10
2022-11-28T11:01:42.109Z,7.84
2022-11-28T11:02:55.336Z,7.61
2022-11-28T11:03:57.239Z,7.38
2022-11-28T11:04:59.244Z,7.25
2022-11-28T11:06:02.304Z,7.51
2022-11-28T11:07:36.980Z,8.09
2022-11-28T11:08:40.965Z,9.05
2022-11-28T11:09:43.957Z,9.60
2022-11-28T11:10:57.816Z,10.06
2022-11-28T11:12:02.387Z,10.45
2022-11-28T11:13:21.138Z,10.37
2022-11-28T11:14:49.068Z,9.87
2022-11-28T11:16:11.626Z,9.21
2022-11-28T11:17:37.700Z,8.69
2022-11-28T11:18:46.643Z,8.22
2022-11-28T11:19:48.473Z,7.89
2022-11-28T11:20:50.553Z,7.64
2022-11-28T11:22:23.047Z,7.42
2022-11-28T11:23:24.826Z,7.20
2022-11-28T11:24:26.663Z,7.43
2022-11-28T11:25:32.475Z,7.97
2022-11-28T11:26:40.417Z,8.63
2022-11-28T11:27:55.359Z,9.24
2022-11-28T11:28:57.516Z,9.80
2022-11-28T11:29:59.552Z,10.17
2022-11-28T11:31:05.037Z,10.28
2022-11-28T11:32:21.840Z,9.98
2022-11-28T11:33:35.035Z,9.43
2022-11-28T11:34:45.330Z,8.90
2022-11-28T11:35:50.304Z,8.46
2022-11-28T11:37:30.152Z,8.08
2022-11-28T11:38:37.973Z,7.61
2022-11-28T11:39:49.474Z,7.36
2022-11-28T11:40:52.080Z,7.12
2022-11-28T11:42:00.443Z,7.14
2022-11-28T11:43:03.600Z,7.62
2022-11-28T11:44:14.090Z,8.26
2022-11-28T11:45:34.446Z,8.93
2022-11-28T11:46:54.411Z,9.57
2022-11-28T11:47:57.221Z,10.10
2022-11-28T11:48:58.961Z,10.26
2022-11-28T11:50:05.102Z,10.00
2022-11-28T11:51:28.531Z,9.53
2022-11-28T11:52:30.579Z,8.91
2022-11-28T11:53:32.374Z,8.51
2022-11-28T11:54:34.165Z,8.14
2022-11-28T11:55:53.695Z,7.83
2022-11-28T11:57:24.872Z,7.50
2022-11-28T11:58:46.308Z,7.20
2022-11-28T12:00:04.850Z,7.00
2022-11-28T12:01:19.779Z,7.46
2022-11-28T12:02:36.286Z,8.13
2022-11-28T12:03:53.288Z,8.90
2022-11-28T12:05:03.968Z,9.52
2022-11-28T12:06:15.244Z,9.99
2022-11-28T12:07:46.030Z,10.16
2022-11-28T12:08:52.651Z,9.73
2022-11-28T12:10:04.171Z,9.25
2022-11-28T12:11:26.630Z,8.75
2022-11-28T12:12:31.147Z,8.24
2022-11-28T12:13:33.222Z,7.91
2022-11-28T12:14:38.272Z,7.64
2022-11-28T12:16:14.900Z,7.39
2022-11-28T12:19:31.939Z,7.28
2022-11-28T12:20:51.510Z,8.05
2022-11-28T12:22:11.672Z,8.83
2022-11-28T12:23:43.452Z,9.49
2022-11-28T12:25:09.718Z,10.07
2022-11-28T12:26:46.110Z,10.10
2022-11-28T12:28:15.558Z,9.47
2022-11-28T12:29:38.429Z,8.82
2022-11-28T12:30:51.443Z,8.30
2022-11-28T12:32:26.851Z,7.90
2022-11-28T12:33:47.624Z,7.51
2022-11-28T12:35:20.031Z,7.21
2022-11-28T12:36:35.061Z,6.92
2022-11-28T12:38:10.627Z,7.07
2022-11-28T12:39:31.920Z,7.91
2022-11-28T12:40:48.885Z,8.70
2022-11-28T12:42:05.544Z,9.32
2022-11-28T12:43:30.445Z,9.81
2022-11-28T12:44:54.196Z,9.93
2022-11-28T12:46:11.400Z,9.42
2022-11-28T12:47:30.800Z,8.83
2022-11-28T12:49:07.432Z,8.29
2022-11-28T12:50:19.188Z,7.73
2022-11-28T12:51:43.858Z,7.40
2022-11-28T12:53:10.312Z,7.08
2022-11-28T12:54:37.974Z,6.91
2022-11-28T12:56:19.971Z,7.43
2022-11-28T12:57:24.451Z,8.46
2022-11-28T12:58:43.834Z,9.03
2022-11-28T12:59:55.449Z,9.62
2022-11-28T13:01:28.336Z,10.00
2022-11-28T13:02:45.097Z,9.76
2022-11-28T13:04:18.452Z,9.20
2022-11-28T13:05:34.427Z,8.51
2022-11-28T13:06:54.044Z,8.02
2022-11-28T13:08:28.228Z,7.61
2022-11-28T13:09:57.734Z,7.22
2022-11-28T13:11:22.423Z,6.90
2022-11-28T13:12:48.498Z,6.84
2022-11-28T13:14:13.495Z,7.46
2022-11-28T13:15:51.081Z,8.30
2022-11-28T13:16:56.371Z,9.15
2022-11-28T13:18:15.789Z,9.60
2022-11-28T13:19:46.893Z,9.90
2022-11-28T13:20:59.130Z,9.49
2022-11-28T13:22:24.465Z,8.94
2022-11-28T13:23:38.990Z,8.30
2022-11-28T13:25:03.978Z,7.82
2022-11-28T13:26:35.147Z,7.39
2022-11-28T13:27:51.490Z,7.01
2022-11-28T13:29:23.503Z,6.75
2022-11-28T13:30:38.733Z,7.03
2022-11-28T13:31:50.779Z,7.73
2022-11-28T13:33:25.171Z,8.43
2022-11-28T13:34:30.214Z,9.19
2022-11-28T13:35:34.113Z,9.62
2022-11-28T13:38:50.653Z,9.41
2022-11-28T13:40:18.989Z,8.58
2022-11-28T13:42:09.693Z,8.02
2022-11-28T13:43:33.118Z,7.46
2022-11-28T13:44:53.557Z,7.00
2022-11-28T13:45:56.351Z,6.69
2022-11-28T13:47:13.672Z,6.56
2022-11-28T13:48:57.569Z,6.93
2022-11-28T13:50:34.564Z,7.85
2022-11-28T13:51:37.427Z,8.71
2022-11-28T13:52:43.425Z,9.14
2022-11-28T13:53:47.375Z,9.52
2022-11-28T13:54:54.570Z,9.64
2022-11-28T13:56:05.119Z,9.32
2022-11-28T13:57:26.926Z,8.78
2022-11-28T13:58:34.830Z,8.15
2022-11-28T13:59:38.560Z,7.70
2022-11-28T14:00:40.655Z,7.32
2022-11-28T14:01:51.277Z,7.00
2022-11-28T14:02:58.271Z,6.68
2022-11-28T14:04:01.251Z,6.43
2022-11-28T14:05:05.117Z,6.52
2022-11-28T14:06:08.148Z,7.00
2022-11-28T14:07:30.258Z,7.60
2022-11-28T14:08:40.406Z,8.34
2022-11-28T14:10:04.190Z,8.87
2022-11-28T14:11:28.192Z,9.37
2022-11-28T14:13:02.821Z,9.64
2022-11-28T14:14:28.499Z,9.21
2022-11-28T14:15:41.129Z,8.54
2022-11-28T14:17:00.972Z,8.00
2022-11-28T14:18:55.003Z,7.48
2022-11-28T14:20:16.631Z,6.94
2022-11-28T14:22:07.138Z,6.55
2022-11-28T14:23:53.366Z,6.54
2022-11-28T14:25:14.425Z,7.44
2022-11-28T14:26:37.109Z,8.19
2022-11-28T14:27:51.795Z,8.80
2022-11-28T14:28:54.670Z,9.27
2022-11-28T14:29:59.911Z,9.53
2022-11-28T14:31:06.384Z,9.50
2022-11-28T14:32:34.584Z,9.09
2022-11-28T14:33:42.527Z,8.36
2022-11-28T14:34:48.356Z,7.85
2022-11-28T14:35:50.190Z,7.42
2022-11-28T14:37:21.590Z,7.08
2022-11-28T14:38:33.668Z,6.66
2022-11-28T14:39:35.592Z,6.44
2022-11-28T14:40:56.051Z,6.64
2022-11-28T14:42:04.241Z,7.33
2022-11-28T14:43:24.195Z,7.96
2022-11-28T14:44:57.530Z,8.62
2022-11-28T14:46:20.455Z,9.23
2022-11-28T14:47:34.913Z,9.51
2022-11-28T14:48:39.854Z,9.19
2022-11-28T14:49:42.080Z,8.69
2022-11-28T14:50:49.451Z,8.18
2022-11-28T14:52:09.880Z,7.70
2022-11-28T14:53:35.768Z,7.22
2022-11-28T14:54:43.522Z,6.82
2022-11-28T14:55:45.757Z,6.54
2022-11-28T14:56:49.656Z,6.48
2022-11-28T14:57:54.341Z,6.83
2022-11-28T14:59:01.666Z,7.42
2022-11-28T15:00:18.529Z,8.07
2022-11-28T15:01:55.505Z,8.74
2022-11-28T15:03:36.015Z,9.39
2022-11-28T15:05:02.161Z,9.52
2022-11-28T15:06:17.639Z,8.94
2022-11-28T15:07:34.548Z,8.31
2022-11-28T15:09:03.369Z,7.74
2022-11-28T15:10:11.536Z,7.19
2022-11-28T15:11:31.974Z,6.83
2022-11-28T15:13:02.493Z,6.49
2022-11-28T15:14:20.823Z,6.54
2022-11-28T15:15:24.310Z,7.19
2022-11-28T15:16:30.571Z,7.79
2022-11-28T15:17:34.052Z,8.37
2022-11-28T15:18:47.749Z,8.86
2022-11-28T15:19:50.565Z,9.29
2022-11-28T15:21:01.124Z,9.52
2022-11-28T15:22:05.018Z,9.30
2022-11-28T15:23:22.373Z,8.83
2022-11-28T15:24:28.487Z,8.22
2022-11-28T15:25:39.856Z,7.73
2022-11-28T15:26:42.585Z,7.28
2022-11-28T15:27:44.489Z,6.96
2022-11-28T15:28:46.388Z,6.66
2022-11-28T15:29:56.440Z,6.41
2022-11-28T15:31:07.160Z,6.39
2022-11-28T15:32:14.868Z,6.88
2022-11-28T15:33:17.741Z,7.51
2022-11-28T15:34:27.012Z,8.06
2022-11-28T15:35:29.182Z,8.59
2022-11-28T15:36:31.702Z,8.98
2022-11-28T15:37:35.468Z,9.30
2022-11-28T15:38:41.249Z,9.43